createdAt,value
2018-01-16T00:02:06.170Z,97807.77
2018-01-16T00:05:07.656Z,97796.33
2018-01-16T00:08:09.244Z,97797.83
2018-01-16T00:11:10.921Z,97818.97
2018-01-16T00:14:13.196Z,97804.80
2018-01-16T00:17:15.501Z,97821.71
2018-01-16T00:20:17.004Z,97819.87
2018-01-16T00:23:18.471Z,97826.40
2018-01-16T00:26:19.992Z,97820.34
2018-01-16T00:29:21.618Z,97831.56
2018-01-16T00:32:23.025Z,97830.34
2018-01-16T00:35:24.480Z,97836.16
2018-01-16T00:38:25.939Z,97826.97
2018-01-16T00:41:27.529Z,97825.17
2018-01-16T00:44:29.158Z,97815.08
2018-01-16T00:47:30.726Z,97837.28
2018-01-16T00:50:33.015Z,97835.54
2018-01-16T00:53:34.617Z,97839.67
2018-01-16T00:56:36.218Z,97853.00
2018-01-16T00:59:38.559Z,97868.63
2018-01-16T01:02:40.176Z,97886.64
2018-01-16T01:05:41.872Z,97872.21
2018-01-16T01:08:43.447Z,97867.78
2018-01-16T01:11:45.858Z,97870.78
2018-01-16T01:14:47.460Z,97874.58
2018-01-16T01:17:48.960Z,97881.21
2018-01-16T01:20:50.528Z,97863.59
2018-01-16T01:23:52.144Z,97864.17
2018-01-16T01:26:54.394Z,97881.05
2018-01-16T01:29:55.966Z,97869.34
2018-01-16T01:32:57.475Z,97881.52
2018-01-16T01:35:59.114Z,97880.60
2018-01-16T01:39:01.510Z,97864.05
2018-01-16T01:42:03.158Z,97869.98
2018-01-16T01:45:04.618Z,97861.80
2018-01-16T01:48:06.024Z,97854.55
2018-01-16T01:51:08.273Z,97850.66
2018-01-16T01:54:09.841Z,97857.53
2018-01-16T01:57:11.982Z,97845.02
2018-01-16T02:00:13.489Z,97844.86
2018-01-16T02:03:14.933Z,97848.05
2018-01-16T02:06:17.123Z,97838.97
2018-01-16T02:09:18.524Z,97841.60
2018-01-16T02:12:20.070Z,97840.42
2018-01-16T02:15:21.517Z,97831.59
2018-01-16T02:18:22.965Z,97830.58
2018-01-16T02:21:24.413Z,97833.85
2018-01-16T02:24:25.853Z,97812.02
2018-01-16T02:27:27.269Z,97804.98
2018-01-16T02:30:29.437Z,97818.24
2018-01-16T02:33:31.667Z,97805.23
2018-01-16T02:36:33.096Z,97797.92
2018-01-16T02:39:34.574Z,97776.19
2018-01-16T02:42:36.106Z,97787.28
2018-01-16T02:45:37.612Z,97777.84
2018-01-16T02:48:39.152Z,97773.24
2018-01-16T02:51:40.719Z,97768.19
2018-01-16T02:54:42.359Z,97771.45
2018-01-16T02:57:44.651Z,97768.78
2018-01-16T03:00:46.085Z,97760.86
2018-01-16T03:03:47.575Z,97780.28
2018-01-16T03:06:49.731Z,97773.16
2018-01-16T03:09:51.130Z,97767.78
2018-01-16T03:12:52.565Z,97745.12
2018-01-16T03:15:54.721Z,97763.14
2018-01-16T03:18:56.872Z,97752.64
2018-01-16T03:21:58.282Z,97763.53
2018-01-16T03:24:59.684Z,97755.81
2018-01-16T03:28:01.809Z,97763.00
2018-01-16T03:31:03.256Z,97724.06
2018-01-16T03:34:04.688Z,97711.43
2018-01-16T03:37:06.100Z,97747.09
2018-01-16T03:40:07.562Z,97727.60
2018-01-16T03:43:09.792Z,97716.17
2018-01-16T03:46:11.235Z,97717.02
2018-01-16T03:49:12.731Z,97705.19
2018-01-16T03:52:14.127Z,97714.19
2018-01-16T03:55:15.608Z,97716.38
2018-01-16T03:58:17.075Z,97730.22
2018-01-16T04:01:18.555Z,97719.56
2018-01-16T04:04:20.004Z,97710.79
2018-01-16T04:07:21.421Z,97693.38
2018-01-16T04:10:23.079Z,97680.50
2018-01-16T04:13:24.509Z,97690.16
2018-01-16T04:16:26.042Z,97698.77
2018-01-16T04:19:28.213Z,97700.56
2018-01-16T04:22:30.358Z,97685.90
2018-01-16T04:25:31.790Z,97694.33
2018-01-16T04:28:33.195Z,97681.47
2018-01-16T04:31:35.315Z,97686.09
2018-01-16T04:34:36.748Z,97673.15
2018-01-16T04:37:38.206Z,97666.30
2018-01-16T04:40:39.623Z,97662.86
2018-01-16T04:43:41.852Z,97656.20
2018-01-16T04:46:43.298Z,97662.09
2018-01-16T04:49:44.775Z,97654.52
2018-01-16T04:52:46.311Z,97652.29
2018-01-16T04:55:47.838Z,97652.60
2018-01-16T04:58:49.398Z,97648.41
2018-01-16T05:01:50.883Z,97624.33
2018-01-16T05:04:52.334Z,97638.21
2018-01-16T05:07:53.711Z,97633.48
2018-01-16T05:10:55.890Z,97634.66
2018-01-16T05:13:58.043Z,97633.14
2018-01-16T05:16:59.448Z,97633.76
2018-01-16T05:20:00.993Z,97630.10
2018-01-16T05:23:02.399Z,97642.50
2018-01-16T05:26:03.816Z,97634.00
2018-01-16T05:29:05.264Z,97621.14
2018-01-16T05:32:06.753Z,97634.77
2018-01-16T05:35:08.196Z,97632.89
2018-01-16T05:38:09.629Z,97631.83
2018-01-16T05:41:11.148Z,97626.15
2018-01-16T05:44:12.613Z,97639.30
2018-01-16T05:47:14.242Z,97633.21
2018-01-16T05:50:16.577Z,97623.05
2018-01-16T05:53:18.199Z,97636.23
2018-01-16T05:56:19.690Z,97629.44
2018-01-16T05:59:21.173Z,97631.92
2018-01-16T06:02:22.679Z,97633.80
2018-01-16T06:05:24.069Z,97617.63
2018-01-16T06:08:25.480Z,97626.23
2018-01-16T06:11:26.940Z,97627.36
2018-01-16T06:14:28.365Z,97636.63
2018-01-16T06:17:29.793Z,97628.71
2018-01-16T06:20:31.310Z,97623.07
2018-01-16T06:23:32.805Z,97630.64
2018-01-16T06:26:34.957Z,97633.79
2018-01-16T06:29:36.435Z,97600.34
2018-01-16T06:32:38.589Z,97612.02
2018-01-16T06:35:40.046Z,97605.09
2018-01-16T06:38:42.165Z,97610.40
2018-01-16T06:41:43.577Z,97621.55
2018-01-16T06:44:45.751Z,97622.40
2018-01-16T06:47:47.864Z,97598.27
2018-01-16T06:50:50.039Z,97610.77
2018-01-16T06:53:51.398Z,97602.67
2018-01-16T06:56:52.832Z,97615.63
2018-01-16T06:59:54.269Z,97610.42
2018-01-16T07:02:55.715Z,97601.45
2018-01-16T07:05:57.186Z,97601.63
2018-01-16T07:08:58.676Z,97592.81
2018-01-16T07:12:00.131Z,97602.38
2018-01-16T07:18:11.109Z,97620.33
2018-01-16T07:21:12.530Z,97604.05
2018-01-16T07:24:13.967Z,97634.44
2018-01-16T07:27:15.972Z,97623.80
2018-01-16T07:30:17.322Z,97618.16
2018-01-16T07:33:18.644Z,97617.42
2018-01-16T07:36:19.921Z,97611.09
2018-01-16T07:39:21.272Z,97619.60
2018-01-16T07:42:22.648Z,97615.26
2018-01-16T07:45:23.980Z,97624.73
2018-01-16T07:48:25.313Z,97620.25
2018-01-16T07:51:26.637Z,97617.35
2018-01-16T07:54:27.952Z,97623.49
2018-01-16T07:57:29.294Z,97626.82
2018-01-16T08:00:30.650Z,97621.48
2018-01-16T08:03:31.933Z,97614.02
2018-01-16T08:06:34.601Z,97615.73
2018-01-16T08:09:36.661Z,97610.00
2018-01-16T08:12:38.098Z,97594.39
2018-01-16T08:15:39.623Z,97598.05
2018-01-16T08:18:41.187Z,97605.05
2018-01-16T08:21:42.554Z,97598.69
2018-01-16T08:24:44.014Z,97604.84
2018-01-16T08:27:45.391Z,97595.41
2018-01-16T08:30:48.249Z,97595.84
2018-01-16T08:33:49.769Z,97598.25
2018-01-16T08:36:51.096Z,97604.75
2018-01-16T08:39:52.991Z,97607.77
2018-01-16T08:42:54.610Z,97601.12
2018-01-16T08:45:55.966Z,97612.38
2018-01-16T08:48:57.323Z,97602.88
2018-01-16T08:51:58.693Z,97599.72
2018-01-16T08:55:00.398Z,97603.92
2018-01-16T08:58:02.524Z,97591.82
2018-01-16T09:01:03.939Z,97588.25
2018-01-16T09:04:05.367Z,97598.14
2018-01-16T09:07:06.718Z,97595.67
2018-01-16T09:10:08.065Z,97601.82
2018-01-16T09:13:09.386Z,97598.55
2018-01-16T09:16:10.776Z,97603.72
2018-01-16T09:19:12.889Z,97599.19
2018-01-16T09:22:14.935Z,97588.01
2018-01-16T09:25:16.251Z,97598.38
2018-01-16T09:28:18.339Z,97604.31
2018-01-16T09:31:19.722Z,97594.78
2018-01-16T09:34:21.080Z,97595.15
2018-01-16T09:37:22.414Z,97594.39
2018-01-16T09:40:23.739Z,97597.97
2018-01-16T09:43:25.819Z,97610.59
2018-01-16T09:46:27.363Z,97605.11
2018-01-16T09:49:29.372Z,97602.08
2018-01-16T09:52:30.693Z,97624.63
2018-01-16T09:55:32.749Z,97633.16
2018-01-16T09:58:34.096Z,97651.77
2018-01-16T10:01:35.428Z,97651.98
2018-01-16T10:04:36.766Z,97765.85
2018-01-16T10:07:38.085Z,97777.21
2018-01-16T10:10:39.341Z,97800.63
2018-01-16T10:13:40.627Z,97775.37
2018-01-16T10:16:42.613Z,97772.62
2018-01-16T10:19:43.945Z,97780.16
2018-01-16T10:22:46.077Z,97748.71
2018-01-16T10:25:47.396Z,97743.94
2018-01-16T10:28:48.759Z,97752.30
2018-01-16T10:31:50.028Z,97748.53
2018-01-16T10:34:51.392Z,97761.83
2018-01-16T10:37:52.714Z,97748.48
2018-01-16T10:40:54.040Z,97754.13
2018-01-16T10:43:55.353Z,97771.70
2018-01-16T10:46:57.457Z,97794.30
2018-01-16T10:49:58.818Z,97786.42
2018-01-16T10:53:00.136Z,97778.82
2018-01-16T10:56:02.260Z,97770.25
2018-01-16T10:59:03.600Z,97774.78
2018-01-16T11:02:04.975Z,97784.05
2018-01-16T11:05:06.220Z,97791.11
2018-01-16T11:08:07.547Z,97800.37
2018-01-16T11:11:08.853Z,97801.73
2018-01-16T11:14:10.230Z,97804.26
2018-01-16T11:17:11.562Z,97805.05
2018-01-16T11:20:12.862Z,97806.10
2018-01-16T11:23:14.178Z,97801.98
2018-01-16T11:26:15.479Z,97815.47
2018-01-16T11:29:16.771Z,97809.85
2018-01-16T11:32:18.032Z,97815.55
2018-01-16T11:35:19.384Z,97826.80
2018-01-16T11:38:20.629Z,97826.02
2018-01-16T11:41:21.938Z,97836.09
2018-01-16T11:44:24.013Z,97842.11
2018-01-16T11:47:25.999Z,97842.70
2018-01-16T11:50:27.310Z,97846.63
2018-01-16T11:53:28.603Z,97830.09
2018-01-16T11:56:29.912Z,97837.18
2018-01-16T11:59:31.936Z,97848.26
2018-01-16T12:02:33.253Z,97832.20
2018-01-16T12:05:34.604Z,97832.59
2018-01-16T12:08:35.864Z,97828.48
2018-01-16T12:11:37.162Z,97824.38
2018-01-16T12:14:38.475Z,97840.41
2018-01-16T12:17:40.520Z,97829.34
2018-01-16T12:20:41.822Z,97833.61
2018-01-16T12:23:43.133Z,97824.27
2018-01-16T12:26:44.485Z,97825.57
2018-01-16T12:29:45.744Z,97825.23
2018-01-16T12:32:47.014Z,97835.96
2018-01-16T12:35:48.401Z,97833.20
2018-01-16T12:38:49.646Z,97842.16
2018-01-16T12:41:51.635Z,97833.84
2018-01-16T12:44:52.933Z,97833.63
2018-01-16T12:47:54.205Z,97832.14
2018-01-16T12:50:56.253Z,97832.41
2018-01-16T12:53:57.569Z,97846.13
2018-01-16T12:56:58.851Z,97855.08
2018-01-16T13:00:00.149Z,97852.83
2018-01-16T13:03:01.426Z,97839.30
2018-01-16T13:06:02.756Z,97839.66
2018-01-16T13:09:04.044Z,97835.39
2018-01-16T13:12:05.324Z,97842.14
2018-01-16T13:15:06.640Z,97833.74
2018-01-16T13:18:07.911Z,97829.80
2018-01-16T13:21:09.944Z,97841.27
2018-01-16T13:24:11.231Z,97834.92
2018-01-16T13:27:13.529Z,97842.02
2018-01-16T13:30:15.088Z,97846.19
2018-01-16T13:33:16.397Z,97846.42
2018-01-16T13:36:18.399Z,97844.80
2018-01-16T13:39:19.670Z,97849.27
2018-01-16T13:42:20.973Z,97849.73
2018-01-16T13:45:22.240Z,97833.28
2018-01-16T13:48:23.827Z,97852.77
2018-01-16T13:51:26.063Z,97853.06
2018-01-16T13:54:27.318Z,97843.48
2018-01-16T13:57:29.026Z,97860.31
2018-01-16T14:00:31.049Z,97855.86
2018-01-16T14:03:32.302Z,97862.02
2018-01-16T14:06:33.962Z,97859.52
2018-01-16T14:09:36.314Z,97863.17
2018-01-16T14:12:37.968Z,97859.48
2018-01-16T14:15:39.325Z,97874.63
2018-01-16T14:18:40.584Z,97892.16
2018-01-16T14:21:41.876Z,97907.36
2018-01-16T14:24:43.215Z,97910.30
2018-01-16T14:27:44.497Z,97921.45
2018-01-16T14:30:46.543Z,97928.32
2018-01-16T14:33:47.843Z,97922.45
2018-01-16T14:36:49.208Z,97926.25
2018-01-16T14:39:50.462Z,97901.98
2018-01-16T14:42:51.755Z,97920.86
2018-01-16T14:45:53.934Z,97917.84
2018-01-16T14:48:55.994Z,97890.56
2018-01-16T14:51:58.646Z,97923.23
2018-01-16T14:55:00.707Z,97907.91
2018-01-16T14:58:03.124Z,97912.46
2018-01-16T15:01:06.413Z,97912.44
2018-01-16T15:04:09.794Z,97919.71
2018-01-16T15:07:11.339Z,97914.50
2018-01-16T15:10:13.293Z,97903.77
2018-01-16T15:13:15.525Z,97907.84
2018-01-16T15:16:18.506Z,97897.06
2018-01-16T15:19:20.778Z,97904.70
2018-01-16T15:22:23.154Z,97911.60
2018-01-16T15:25:26.613Z,97910.63
2018-01-16T15:28:29.045Z,97917.25
2018-01-16T15:31:30.593Z,97911.22
2018-01-16T15:34:32.429Z,97914.39
2018-01-16T15:37:34.559Z,97931.66
2018-01-16T15:40:36.206Z,97929.89
2018-01-16T15:43:37.457Z,97914.88
2018-01-16T15:46:38.737Z,97921.48
2018-01-16T15:49:41.983Z,97928.47
2018-01-16T15:52:45.505Z,97928.84
2018-01-16T15:55:47.440Z,97937.31
2018-01-16T15:58:48.956Z,97938.21
2018-01-16T16:01:51.429Z,97926.05
2018-01-16T16:04:53.452Z,97925.69
2018-01-16T16:07:57.871Z,97927.27
2018-01-16T16:10:59.170Z,97937.24
2018-01-16T16:14:01.189Z,97938.59
2018-01-16T16:17:03.069Z,97945.70
2018-01-16T16:20:06.341Z,97960.70
2018-01-16T16:23:07.575Z,97946.81
2018-01-16T16:26:09.826Z,97943.35
2018-01-16T16:29:12.949Z,97944.90
2018-01-16T16:32:14.506Z,97957.23
2018-01-16T16:35:16.576Z,97958.44
2018-01-16T16:38:20.801Z,97946.41
2018-01-16T16:41:22.461Z,97941.68
2018-01-16T16:44:23.768Z,97943.69
2018-01-16T16:47:25.193Z,97936.83
2018-01-16T16:50:28.257Z,97923.30
2018-01-16T16:53:30.630Z,97938.88
2018-01-16T16:56:32.469Z,97931.88
2018-01-16T16:59:34.872Z,97939.70
2018-01-16T17:02:36.350Z,97947.20
2018-01-16T17:05:37.722Z,97962.47
2018-01-16T17:08:39.851Z,97965.53
2018-01-16T17:11:41.867Z,97953.30
2018-01-16T17:14:43.862Z,97953.91
2018-01-16T17:17:45.932Z,97940.55
2018-01-16T17:20:48.603Z,97949.84
2018-01-16T17:23:51.912Z,97964.59
2018-01-16T17:26:53.655Z,97960.91
2018-01-16T17:29:55.061Z,97954.38
2018-01-16T17:32:57.887Z,97937.96
2018-01-16T17:35:59.308Z,97949.13
2018-01-16T17:39:00.707Z,97949.53
2018-01-16T17:42:04.635Z,97953.47
2018-01-16T17:45:06.174Z,97951.23
2018-01-16T17:48:07.650Z,97940.01
2018-01-16T17:51:09.129Z,97936.89
2018-01-16T17:54:10.546Z,97923.89
2018-01-16T17:57:11.821Z,97930.11
2018-01-16T18:00:14.519Z,97917.15
2018-01-16T18:03:17.715Z,97925.94
2018-01-16T18:06:19.902Z,97924.66
2018-01-16T18:09:21.915Z,97906.07
2018-01-16T18:12:23.260Z,97901.87
2018-01-16T18:15:25.610Z,97899.78
2018-01-16T18:18:27.244Z,97912.50
2018-01-16T18:21:28.760Z,97920.66
2018-01-16T18:24:33.977Z,97936.55
2018-01-16T18:27:35.862Z,97943.76
2018-01-16T18:30:39.086Z,97931.39
2018-01-16T18:33:41.372Z,97950.83
2018-01-16T18:36:43.545Z,97931.95
2018-01-16T18:39:44.817Z,97930.56
2018-01-16T18:42:46.120Z,97909.52
2018-01-16T18:45:47.416Z,97917.08
2018-01-16T18:48:48.726Z,97915.42
2018-01-16T18:51:50.785Z,97925.96
2018-01-16T18:54:52.059Z,97925.85
2018-01-16T18:57:53.317Z,97936.73
2018-01-16T19:00:54.624Z,97925.04
2018-01-16T19:03:56.127Z,97927.89
2018-01-16T19:06:57.427Z,97935.58
2018-01-16T19:09:59.563Z,97910.25
2018-01-16T19:13:04.212Z,97915.87
2018-01-16T19:16:10.746Z,97932.94
2018-01-16T19:19:15.971Z,97922.12
2018-01-16T19:22:23.993Z,97918.16
2018-01-16T19:25:25.304Z,97915.23
2018-01-16T19:28:27.364Z,97923.56
2018-01-16T19:31:28.736Z,97910.25
2018-01-16T19:34:30.029Z,97908.95
2018-01-16T19:37:31.284Z,97905.55
2018-01-16T19:40:32.624Z,97900.95
2018-01-16T19:43:33.901Z,97903.07
2018-01-16T19:46:35.406Z,97911.75
2018-01-16T19:49:36.838Z,97916.00
2018-01-16T19:52:38.261Z,97903.59
2018-01-16T19:55:39.717Z,97890.90
2018-01-16T19:58:41.983Z,97903.41
2018-01-16T20:01:43.431Z,97906.16
2018-01-16T20:04:44.785Z,97897.98
2018-01-16T20:07:46.260Z,97909.86
2018-01-16T20:10:48.271Z,97908.69
2018-01-16T20:13:49.743Z,97908.34
2018-01-16T20:16:51.869Z,97902.41
2018-01-16T20:19:53.296Z,97906.59
2018-01-16T20:22:55.447Z,97907.11
2018-01-16T20:25:56.751Z,97902.52
2018-01-16T20:28:58.429Z,97914.72
2018-01-16T20:31:59.848Z,97913.28
2018-01-16T20:35:01.219Z,97891.92
2018-01-16T20:38:02.679Z,97907.52
2018-01-16T20:41:04.013Z,97889.02
2018-01-16T20:44:05.366Z,97904.93
2018-01-16T20:47:06.699Z,97899.35
2018-01-16T20:50:08.225Z,97903.09
2018-01-16T20:53:10.585Z,97902.78
2018-01-16T20:56:12.087Z,97895.58
2018-01-16T20:59:14.526Z,97912.36
2018-01-16T21:02:15.849Z,97900.46
2018-01-16T21:05:18.033Z,97904.59
2018-01-16T21:08:19.358Z,97894.75
2018-01-16T21:11:20.852Z,97886.78
2018-01-16T21:14:22.185Z,97872.69
2018-01-16T21:17:24.534Z,97885.59
2018-01-16T21:20:25.872Z,97871.72
2018-01-16T21:23:27.327Z,97873.00
2018-01-16T21:26:29.550Z,97866.23
2018-01-16T21:29:30.973Z,97857.66
2018-01-16T21:32:32.372Z,97863.88
2018-01-16T21:35:34.465Z,97850.31
2018-01-16T21:38:36.167Z,97844.63
2018-01-16T21:41:38.665Z,97853.01
2018-01-16T21:44:41.110Z,97843.70
2018-01-16T21:47:43.516Z,97851.66
2018-01-16T21:50:45.291Z,97854.98
2018-01-16T21:53:46.977Z,97839.47
2018-01-16T21:56:48.538Z,97846.66
2018-01-16T21:59:50.297Z,97863.94
2018-01-16T22:02:52.012Z,97851.09
2018-01-16T22:05:53.382Z,97851.72
2018-01-16T22:08:54.799Z,97856.57
2018-01-16T22:11:56.130Z,97852.14
2018-01-16T22:14:57.614Z,97851.78
2018-01-16T22:17:59.881Z,97859.87
2018-01-16T22:21:01.349Z,97838.11
2018-01-16T22:24:02.876Z,97850.34
2018-01-16T22:27:04.262Z,97835.41
2018-01-16T22:30:05.694Z,97847.55
2018-01-16T22:33:07.772Z,97853.10
2018-01-16T22:36:09.866Z,97842.91
2018-01-16T22:39:11.198Z,97853.34
2018-01-16T22:42:12.579Z,97856.17
2018-01-16T22:50:37.152Z,97837.61
2018-01-16T22:53:38.493Z,97842.01
2018-01-16T22:56:39.926Z,97827.32
2018-01-16T22:59:41.254Z,97826.16
2018-01-16T23:02:42.602Z,97820.06
2018-01-16T23:05:43.946Z,97808.54
2018-01-16T23:08:45.300Z,97803.31
2018-01-16T23:11:46.609Z,97814.66
2018-01-16T23:14:48.688Z,97809.41
2018-01-16T23:17:50.121Z,97798.06
2018-01-16T23:20:51.396Z,97799.94
2018-01-16T23:23:52.806Z,97801.77
2018-01-16T23:26:54.091Z,97782.81
2018-01-16T23:29:55.440Z,97794.78
2018-01-16T23:32:57.601Z,97791.29
2018-01-16T23:35:59.680Z,97791.53
2018-01-16T23:39:01.050Z,97782.02
2018-01-16T23:42:02.377Z,97773.16
2018-01-16T23:45:03.748Z,97766.34
2018-01-16T23:48:05.093Z,97762.14
2018-01-16T23:51:06.452Z,97760.20
2018-01-16T23:54:07.747Z,97754.77
2018-01-16T23:57:09.224Z,97751.23
